Aérodrome :
LOGIN :

S'inscrire | Disclaimer

   EN    FR    IT 

 










Légende :    VFR   VFR Marginal   IFR   IFR Intensif   IFR Très Intensif
Visi : 
Plafond : 
>= 8 km
>= 3000ft
5 à 8 km
1000 à 3000 ft
1500m à 5 km
500 à 1000 ft
800 à 1500m
200 à 500 ft
< 800m
< 200 ft
Symboles :   Orages  Brouillard  Fortes neiges  Fortes précipitations  Vent > 20 kt
SIGMETs :   Divers  Orages  Givrage  Turbulence  Onde Orograph.  Cendres Volcan.






- Altitude de l'aérodrome : 37 ft
- Code IATA : HLY


EGOV - RAF Valley

DERNIER METAR :
  • 292050Z AUTO 21022KT 8000 HZ OVC035/// 09/07 Q1005

METARs EXPIRÉS :
  • 291950Z AUTO 21020KT 7000 HZ BKN039/// 09/07 Q1006
  • 291920Z 21021KT 9999 BKN037 OVC047 09/07 Q1005 NOSIG RMK BLU BLU
  • 291850Z 22019KT 9999 BKN033 OVC047 09/07 Q1005 NOSIG RMK BLU BLU
  • 291823Z 22021KT 9999 BKN037 OVC048 09/07 Q1005 NOSIG RMK BLU BLU

Prévision TAF périmée.



MET'MAP, la Météo Aéronautique d'un coup d'oeil ! - Copyright ORBIFLY Décembre 2007 - Disclaimer

ORBIFLY MET'MAP TEAM :

Programmation & Développement : Alexandra Zaïnal
Sur une idée originale de : Baudouin d'Aumeries
Assistance à la programmation : Marc-Olivier Méhu
Soutien technique & logistique : Manuel Goepfert

Contact : metmap@orbifly.com




SOURCES & CREDITS :

   NOAA